Time;durP1;ratioP1;P1;durP2;ratioP2;P2;SDS_P1;SDS_P2;PMS_P1;PMS_P2;Temp;Humidity;BMP_temperature;BMP_pressure;BME280_temperature;BME280_humidity;BME280_pressure;Samples;Min_cycle;Max_cycle;Signal;HPM_P1;HPM_P2
2021/06/03 00:02:01;;;;;;;2.12;0.33;;;;;;;12.96;72.71;100687.47;1736794;82;21061;-84
2021/06/03 00:04:29;;;;;;;0.50;0.50;;;;;;;12.99;72.33;100693.73;1737617;82;21478;-84
2021/06/03 00:06:57;;;;;;;0.30;0.30;;;;;;;13.01;72.55;100683.86;1737398;82;21012;-84
2021/06/03 00:09:26;;;;;;;0.20;0.20;;;;;;;12.97;72.44;100693.20;1731704;82;20997;-83
2021/06/03 00:11:52;;;;;;;0.42;0.37;;;;;;;12.96;72.24;100693.48;1708032;84;21076;-85
2021/06/03 00:14:20;;;;;;;0.15;0.15;;;;;;;12.97;72.17;100689.66;1708009;84;21456;-85
2021/06/03 00:16:47;;;;;;;0.95;0.40;;;;;;;12.95;72.11;100695.97;1708080;84;21032;-85
2021/06/03 00:19:14;;;;;;;0.80;0.70;;;;;;;12.93;72.34;100686.66;1739543;81;21036;-84
2021/06/03 00:21:41;;;;;;;0.75;0.55;;;;;;;12.88;71.98;100691.66;1726342;81;20986;-85
2021/06/03 00:24:08;;;;;;;0.30;0.30;;;;;;;12.90;72.29;100689.42;1725074;82;21009;-85
2021/06/03 00:26:35;;;;;;;1.22;0.45;;;;;;;12.90;72.04;100692.16;1724646;82;21040;-85
2021/06/03 00:29:03;;;;;;;0.75;0.62;;;;;;;12.92;72.08;100691.88;1722783;83;21136;-85
2021/06/03 00:31:32;;;;;;;0.30;0.30;;;;;;;12.89;72.08;100686.42;1722247;83;21343;-85
2021/06/03 00:33:58;;;;;;;0.30;0.30;;;;;;;12.84;72.15;100683.73;1722395;83;21016;-85
2021/06/03 00:36:25;;;;;;;0.53;0.53;;;;;;;12.82;72.24;100680.45;1722237;83;21011;-85
2021/06/03 00:38:52;;;;;;;0.30;0.30;;;;;;;12.79;72.53;100677.48;1722186;83;21007;-85
2021/06/03 00:41:19;;;;;;;2.35;0.70;;;;;;;12.74;72.89;100683.02;1722268;82;21083;-85
2021/06/03 00:43:46;;;;;;;0.62;0.30;;;;;;;12.70;72.85;100680.02;1722307;83;21007;-84
2021/06/03 00:46:13;;;;;;;0.15;0.15;;;;;;;12.68;72.49;100694.56;1723090;83;21540;-84
2021/06/03 00:48:40;;;;;;;0.30;0.30;;;;;;;12.65;72.68;100675.39;1725065;83;21001;-84
2021/06/03 00:51:09;;;;;;;0.25;0.25;;;;;;;12.63;73.26;100684.45;1723993;82;21056;-85
2021/06/03 00:53:38;;;;;;;0.25;0.23;;;;;;;12.59;72.75;100686.71;1699251;83;21028;-85
2021/06/03 00:56:04;;;;;;;0.50;0.50;;;;;;;12.56;73.29;100684.00;1724329;83;21032;-84
2021/06/03 00:58:34;;;;;;;0.40;0.40;;;;;;;12.51;73.53;100679.89;1699492;83;21328;-84
2021/06/03 01:01:01;;;;;;;0.78;0.55;;;;;;;12.47;73.57;100685.15;1724272;83;20992;-84
2021/06/03 01:03:28;;;;;;;0.65;0.37;;;;;;;12.48;73.25;100685.95;1724352;83;21012;-84
2021/06/03 01:06:00;;;;;;;1.00;0.45;;;;;;;12.46;73.60;100689.53;1722212;83;21019;-84
2021/06/03 01:08:35;;;;;;;0.33;0.33;;;;;;;12.43;73.25;100689.55;1723633;83;20988;-84
2021/06/03 01:11:18;;;;;;;0.20;0.20;;;;;;;12.47;72.64;100692.00;1722500;83;21040;-85
2021/06/03 01:14:01;;;;;;;0.40;0.20;;;;;;;12.52;72.53;100693.08;1722489;82;21031;-84
2021/06/03 01:16:28;;;;;;;1.07;0.85;;;;;;;12.53;72.55;100691.39;1722096;82;21376;-85
2021/06/03 01:18:55;;;;;;;0.37;0.37;;;;;;;12.56;72.46;100684.52;1722436;83;21688;-84
2021/06/03 01:21:47;;;;;;;0.53;0.33;;;;;;;12.53;72.50;100686.47;1715449;81;20998;-84
2021/06/03 01:24:38;;;;;;;0.50;0.50;;;;;;;12.51;72.45;100688.67;1720182;83;21495;-85
2021/06/03 01:27:13;;;;;;;0.35;0.35;;;;;;;12.49;72.72;100675.28;1737429;82;20998;-85
2021/06/03 01:29:50;;;;;;;0.30;0.20;;;;;;;12.46;72.65;100686.80;1744834;81;21568;-85
2021/06/03 01:32:17;;;;;;;0.20;0.20;;;;;;;12.45;72.22;100690.09;1737454;82;21009;-85
2021/06/03 01:34:44;;;;;;;0.60;0.20;;;;;;;12.50;72.06;100687.05;1737487;82;21043;-85
2021/06/03 01:37:11;;;;;;;0.60;0.42;;;;;;;12.48;72.35;100681.29;1737377;82;21389;-84
2021/06/03 01:39:42;;;;;;;0.47;0.20;;;;;;;12.46;72.06;100686.27;1686374;82;21097;-85
2021/06/03 01:42:08;;;;;;;0.40;0.40;;;;;;;12.44;72.14;100690.40;1708775;82;21466;-85
2021/06/03 01:44:37;;;;;;;0.23;0.23;;;;;;;12.44;72.40;100680.25;1737447;82;21502;-85
2021/06/03 01:47:04;;;;;;;1.40;0.33;;;;;;;12.43;71.30;100692.30;1737537;82;21459;-84
2021/06/03 01:49:33;;;;;;;0.68;0.30;;;;;;;12.43;71.60;100690.92;1735475;82;20993;-82
2021/06/03 01:52:03;;;;;;;0.75;0.75;;;;;;;12.40;72.06;100684.66;1708080;83;21044;-82
2021/06/03 01:54:32;;;;;;;0.68;0.68;;;;;;;12.34;71.75;100695.40;1708207;84;21039;-83
2021/06/03 01:57:03;;;;;;;0.45;0.45;;;;;;;12.31;71.62;100693.20;1708037;83;21511;-82
2021/06/03 01:59:34;;;;;;;0.23;0.23;;;;;;;12.31;71.08;100691.84;1671035;82;21013;-82
2021/06/03 02:02:00;;;;;;;1.98;1.07;;;;;;;12.35;71.14;100683.32;1737516;82;21475;-82
2021/06/03 02:04:27;;;;;;;0.20;0.20;;;;;;;12.35;70.24;100698.39;1737818;82;20991;-83
2021/06/03 02:06:56;;;;;;;1.07;0.37;;;;;;;12.44;70.27;100686.28;1737477;82;21039;-82
2021/06/03 02:09:24;;;;;;;0.42;0.30;;;;;;;12.44;70.33;100692.58;1715811;82;21074;-82
2021/06/03 02:11:51;;;;;;;0.57;0.40;;;;;;;12.44;70.43;100687.66;1679514;84;21033;-82
2021/06/03 02:14:23;;;;;;;0.42;0.42;;;;;;;12.45;69.93;100688.72;1680663;84;21021;-82
2021/06/03 02:16:57;;;;;;;0.30;0.30;;;;;;;12.51;69.47;100695.53;1681136;82;21037;-82
2021/06/03 02:19:37;;;;;;;0.57;0.57;;;;;;;12.54;69.67;100686.76;1737723;82;21013;-83
2021/06/03 02:22:05;;;;;;;1.10;0.35;;;;;;;12.54;69.25;100685.39;1707667;82;21461;-81
2021/06/03 02:24:34;;;;;;;0.40;0.40;;;;;;;12.56;69.08;100690.00;1708676;82;21461;-82
2021/06/03 02:27:02;;;;;;;0.70;0.70;;;;;;;12.56;68.86;100691.37;1723693;82;20997;-82
2021/06/03 02:29:29;;;;;;;0.37;0.33;;;;;;;12.56;69.38;100693.59;1680928;84;21056;-82
2021/06/03 02:32:01;;;;;;;0.30;0.28;;;;;;;12.57;68.80;100693.84;1706729;84;21430;-82
2021/06/03 02:34:29;;;;;;;1.02;0.80;;;;;;;12.63;69.09;100700.09;1707430;84;21036;-82
2021/06/03 02:36:56;;;;;;;0.20;0.20;;;;;;;12.64;68.58;100702.56;1707893;82;21014;-82
2021/06/03 02:39:22;;;;;;;1.00;0.50;;;;;;;12.66;68.66;100699.51;1679748;84;21048;-82
2021/06/03 02:41:50;;;;;;;0.70;0.30;;;;;;;12.65;68.78;100706.92;1657108;84;21013;-82
2021/06/03 02:44:17;;;;;;;0.68;0.20;;;;;;;12.66;68.42;100696.23;1717701;82;21100;-82
2021/06/03 02:46:44;;;;;;;0.53;0.53;;;;;;;12.66;69.00;100705.84;1745179;82;20986;-81
2021/06/03 02:49:11;;;;;;;0.37;0.25;;;;;;;12.66;68.01;100702.25;1715671;82;20989;-83
2021/06/03 02:51:41;;;;;;;0.30;0.30;;;;;;;12.72;67.89;100706.60;1745047;82;20991;-82
2021/06/03 02:54:09;;;;;;;0.72;0.57;;;;;;;12.74;68.24;100711.25;1705435;82;21025;-82
2021/06/03 02:56:39;;;;;;;0.65;0.20;;;;;;;12.72;67.86;100714.02;1716524;83;20987;-82
2021/06/03 02:59:07;;;;;;;1.00;0.35;;;;;;;12.74;68.23;100707.14;1715401;83;21075;-82
2021/06/03 03:01:36;;;;;;;0.50;0.50;;;;;;;12.70;68.91;100711.55;1715244;83;21004;-82
2021/06/03 03:04:04;;;;;;;0.20;0.20;;;;;;;12.67;68.48;100706.65;1707943;84;21020;-82
2021/06/03 03:06:32;;;;;;;2.30;0.72;;;;;;;12.67;68.87;100705.28;1707896;84;21092;-82
2021/06/03 03:09:00;;;;;;;0.40;0.30;;;;;;;12.66;69.20;100707.73;1708120;84;21522;-83
2021/06/03 03:11:27;;;;;;;0.55;0.45;;;;;;;12.63;69.21;100700.09;1707772;83;21046;-83
2021/06/03 03:13:54;;;;;;;0.37;0.37;;;;;;;12.65;68.86;100706.11;1726212;82;20980;-82
2021/06/03 03:16:21;;;;;;;0.70;0.40;;;;;;;12.67;68.11;100697.05;1737135;82;21005;-83
2021/06/03 03:18:49;;;;;;;0.40;0.40;;;;;;;12.70;68.16;100703.33;1737051;82;21048;-82
2021/06/03 03:21:17;;;;;;;1.25;0.50;;;;;;;12.74;68.14;100707.14;1730748;81;21099;-82
2021/06/03 03:23:46;;;;;;;0.53;0.28;;;;;;;12.77;67.92;100712.59;1725416;83;21035;-82
2021/06/03 03:26:14;;;;;;;1.12;0.60;;;;;;;12.77;68.26;100710.67;1711546;83;21036;-82
2021/06/03 03:28:41;;;;;;;0.55;0.30;;;;;;;12.79;68.33;100714.50;1724321;80;21004;-82
2021/06/03 03:31:08;;;;;;;0.15;0.15;;;;;;;12.79;68.54;100708.46;1717549;82;21013;-81
2021/06/03 03:33:35;;;;;;;0.60;0.60;;;;;;;12.76;68.17;100714.53;1727347;81;21489;-82
2021/06/03 03:36:02;;;;;;;0.88;0.75;;;;;;;12.77;68.54;100710.67;1741287;82;21009;-82
2021/06/03 03:38:31;;;;;;;0.47;0.47;;;;;;;12.77;67.79;100715.34;1753141;81;21391;-82
2021/06/03 03:40:58;;;;;;;0.40;0.40;;;;;;;12.81;68.43;100711.73;1690763;83;21028;-83
2021/06/03 03:43:26;;;;;;;0.98;0.40;;;;;;;12.85;68.38;100713.34;1723608;83;21047;-82
2021/06/03 03:45:53;;;;;;;0.55;0.30;;;;;;;12.88;68.38;100718.24;1711479;83;21077;-81
2021/06/03 03:48:21;;;;;;;0.20;0.20;;;;;;;12.93;68.44;100707.78;1728273;81;21042;-82
2021/06/03 03:50:47;;;;;;;0.25;0.25;;;;;;;12.95;68.82;100711.06;1753778;81;21447;-82
2021/06/03 03:53:16;;;;;;;0.35;0.35;;;;;;;12.94;68.34;100717.11;1750704;81;21478;-81
2021/06/03 03:55:44;;;;;;;0.62;0.40;;;;;;;12.98;67.53;100724.19;1723872;83;21909;-82
2021/06/03 03:58:11;;;;;;;2.20;1.05;;;;;;;12.99;67.54;100723.10;1729362;81;21016;-82
2021/06/03 04:00:38;;;;;;;1.15;0.40;;;;;;;13.01;67.74;100731.86;1727660;81;21113;-82
2021/06/03 04:03:09;;;;;;;1.20;0.62;;;;;;;13.02;68.11;100726.06;1770649;81;21033;-82
2021/06/03 04:05:36;;;;;;;1.45;0.60;;;;;;;13.01;67.25;100728.56;1754159;81;21647;-82
2021/06/03 04:08:06;;;;;;;0.72;0.23;;;;;;;13.02;66.90;100723.89;1724788;81;21029;-83
2021/06/03 04:10:33;;;;;;;0.33;0.30;;;;;;;13.01;67.27;100722.27;1723927;83;21032;-82
2021/06/03 04:13:00;;;;;;;0.28;0.23;;;;;;;12.99;68.08;100725.28;1725113;83;20998;-81
2021/06/03 04:15:28;;;;;;;0.53;0.53;;;;;;;12.95;67.67;100729.70;1714392;83;21048;-84
2021/06/03 04:17:56;;;;;;;0.72;0.60;;;;;;;12.94;67.48;100727.27;1725344;83;20962;-82
2021/06/03 04:20:25;;;;;;;0.62;0.42;;;;;;;12.96;67.62;100723.66;1725332;83;21688;-83
2021/06/03 04:22:53;;;;;;;0.60;0.57;;;;;;;12.99;67.58;100732.70;1708370;82;21033;-85
2021/06/03 04:25:22;;;;;;;0.50;0.50;;;;;;;12.99;67.51;100732.70;1707340;84;21021;-86
2021/06/03 04:27:49;;;;;;;1.45;0.50;;;;;;;12.98;68.03;100728.30;1714956;82;21029;-85
2021/06/03 04:30:18;;;;;;;1.12;0.85;;;;;;;12.96;68.27;100736.00;1715202;82;21416;-86
2021/06/03 04:32:47;;;;;;;0.30;0.30;;;;;;;12.95;67.48;100737.11;1680343;84;21032;-83
2021/06/03 04:35:17;;;;;;;0.78;0.60;;;;;;;12.98;67.33;100739.27;1679510;84;21029;-86
2021/06/03 04:37:45;;;;;;;0.53;0.40;;;;;;;13.00;68.16;100738.44;1715424;82;21467;-86
2021/06/03 04:40:13;;;;;;;0.37;0.33;;;;;;;13.00;68.26;100735.13;1715452;82;21015;-83
2021/06/03 04:42:40;;;;;;;0.62;0.40;;;;;;;13.03;67.93;100737.85;1708014;84;21026;-83
2021/06/03 04:45:08;;;;;;;0.20;0.20;;;;;;;13.07;67.08;100734.81;1708013;84;21012;-83
2021/06/03 04:47:35;;;;;;;1.65;0.40;;;;;;;13.13;67.29;100741.90;1707936;84;21025;-86
2021/06/03 04:50:02;;;;;;;0.80;0.57;;;;;;;13.16;67.21;100733.08;1707613;84;20953;-86
2021/06/03 04:52:29;;;;;;;0.65;0.35;;;;;;;13.19;67.46;100733.86;1715433;82;21463;-83
2021/06/03 04:54:59;;;;;;;0.30;0.30;;;;;;;13.23;66.77;100741.80;1715462;83;21551;-82
2021/06/03 04:57:27;;;;;;;0.33;0.30;;;;;;;13.28;67.12;100728.61;1715970;82;20958;-86
2021/06/03 04:59:54;;;;;;;0.30;0.30;;;;;;;13.33;66.45;100737.59;1708821;84;21069;-87
2021/06/03 05:02:21;;;;;;;0.78;0.55;;;;;;;13.39;66.12;100739.72;1715628;82;20998;-84
2021/06/03 05:04:49;;;;;;;0.35;0.35;;;;;;;13.45;67.36;100733.61;1715761;82;20961;-83
2021/06/03 05:07:16;;;;;;;1.12;0.93;;;;;;;13.50;66.45;100729.44;1708002;84;21076;-85
2021/06/03 05:09:43;;;;;;;0.30;0.30;;;;;;;13.56;65.64;100737.89;1708417;84;21000;-87
2021/06/03 05:12:10;;;;;;;1.37;0.57;;;;;;;13.63;66.16;100736.18;1708046;84;21493;-86
2021/06/03 05:14:38;;;;;;;0.60;0.45;;;;;;;13.68;66.61;100739.67;1715589;82;20966;-86
2021/06/03 05:17:04;;;;;;;0.55;0.55;;;;;;;13.71;65.60;100744.57;1707875;84;20937;-84
2021/06/03 05:19:34;;;;;;;0.50;0.50;;;;;;;13.78;65.67;100742.04;1708208;84;21562;-86
2021/06/03 05:22:03;;;;;;;1.20;0.20;;;;;;;13.80;65.98;100740.63;1709186;82;21017;-84
2021/06/03 05:24:31;;;;;;;0.30;0.30;;;;;;;13.85;65.86;100744.69;1723902;83;21491;-87
2021/06/03 05:26:58;;;;;;;0.45;0.23;;;;;;;13.93;65.83;100746.77;1711691;83;21100;-84
2021/06/03 05:29:26;;;;;;;0.30;0.30;;;;;;;14.06;64.55;100742.48;1723726;83;21071;-82
2021/06/03 05:31:54;;;;;;;0.45;0.33;;;;;;;14.17;64.65;100742.61;1711583;83;21531;-87
2021/06/03 05:34:20;;;;;;;1.07;0.47;;;;;;;14.32;64.59;100747.07;1723678;83;20997;-84
2021/06/03 05:36:47;;;;;;;1.00;0.37;;;;;;;14.48;63.73;100739.96;1723724;83;21560;-84
2021/06/03 05:39:15;;;;;;;0.20;0.20;;;;;;;14.61;63.74;100742.81;1711617;83;21037;-84
2021/06/03 05:41:42;;;;;;;0.50;0.50;;;;;;;14.77;63.73;100750.25;1673822;84;21037;-87
2021/06/03 05:44:10;;;;;;;0.68;0.60;;;;;;;14.93;62.81;100732.91;1724579;83;20973;-87
2021/06/03 05:46:36;;;;;;;0.95;0.60;;;;;;;15.05;63.06;100736.57;1723706;83;21516;-87
2021/06/03 05:49:08;;;;;;;0.50;0.50;;;;;;;15.16;61.22;100733.91;1694615;84;20992;-88
2021/06/03 05:51:35;;;;;;;0.37;0.30;;;;;;;15.23;62.85;100743.13;1723746;83;21072;-85
2021/06/03 05:54:02;;;;;;;1.45;0.47;;;;;;;15.36;60.55;100744.28;1723806;83;20981;-84
2021/06/03 05:56:30;;;;;;;0.23;0.23;;;;;;;15.47;61.37;100740.20;1723777;83;20976;-87
2021/06/03 05:58:57;;;;;;;0.35;0.30;;;;;;;15.60;61.70;100737.19;1711412;83;21021;-88
2021/06/03 06:01:25;;;;;;;0.30;0.30;;;;;;;15.71;61.00;100742.79;1723882;83;21368;-84
2021/06/03 06:06:30;;;;;;;0.25;0.25;;;;;;;15.88;59.48;100741.60;1689627;83;21012;-87
2021/06/03 06:08:59;;;;;;;0.42;0.42;;;;;;;15.96;58.83;100743.38;1723603;83;21045;-88
2021/06/03 06:11:30;;;;;;;0.60;0.60;;;;;;;15.96;60.88;100742.00;1723752;83;21452;-85
2021/06/03 06:13:57;;;;;;;0.47;0.30;;;;;;;16.00;57.82;100747.98;1711534;83;21076;-84
2021/06/03 06:16:23;;;;;;;1.60;0.40;;;;;;;16.06;59.58;100747.30;1697950;84;21014;-84
2021/06/03 06:18:51;;;;;;;0.53;0.30;;;;;;;16.14;58.36;100739.66;1723568;83;20989;-88
2021/06/03 06:21:20;;;;;;;0.70;0.37;;;;;;;16.26;58.17;100741.31;1698913;83;21056;-88
2021/06/03 06:23:47;;;;;;;1.00;0.90;;;;;;;16.43;59.78;100745.37;1715951;83;21604;-88
2021/06/03 06:26:14;;;;;;;0.57;0.57;;;;;;;16.64;58.15;100749.28;1708860;84;21049;-84
2021/06/03 06:28:41;;;;;;;1.27;0.85;;;;;;;16.73;58.68;100741.05;1708966;84;21017;-84
2021/06/03 06:31:08;;;;;;;1.05;0.62;;;;;;;16.81;58.10;100736.75;1707932;84;21470;-84
2021/06/03 06:33:35;;;;;;;0.65;0.57;;;;;;;16.86;57.53;100742.14;1707934;84;21005;-85
2021/06/03 06:36:02;;;;;;;0.20;0.20;;;;;;;16.93;56.68;100730.09;1715346;82;21033;-88
2021/06/03 06:38:30;;;;;;;0.50;0.50;;;;;;;17.07;57.86;100734.17;1715265;82;21575;-87
2021/06/03 06:40:57;;;;;;;0.50;0.50;;;;;;;17.19;57.16;100741.30;1715378;82;21009;-84
2021/06/03 06:43:24;;;;;;;0.55;0.40;;;;;;;17.26;56.55;100728.40;1707836;84;21870;-87
2021/06/03 06:45:51;;;;;;;0.80;0.60;;;;;;;17.35;56.08;100741.69;1715575;82;21053;-84
2021/06/03 06:48:18;;;;;;;0.93;0.60;;;;;;;17.44;53.25;100750.84;1715259;82;21044;-84
2021/06/03 06:50:47;;;;;;;0.40;0.40;;;;;;;17.54;54.11;100747.79;1708104;84;21013;-85
2021/06/03 06:53:14;;;;;;;0.30;0.30;;;;;;;17.60;54.33;100743.73;1710620;84;21534;-86
2021/06/03 06:55:41;;;;;;;0.40;0.40;;;;;;;17.73;53.72;100743.39;1716448;82;21060;-88
2021/06/03 06:58:07;;;;;;;0.93;0.55;;;;;;;17.81;51.82;100739.06;1715335;82;21052;-85
2021/06/03 07:00:36;;;;;;;0.40;0.40;;;;;;;17.84;51.24;100752.23;1715326;82;21005;-87
2021/06/03 07:03:02;;;;;;;0.30;0.30;;;;;;;17.86;51.42;100744.44;1708080;84;21037;-85
2021/06/03 07:05:29;;;;;;;0.35;0.33;;;;;;;17.91;53.36;100731.03;1707958;84;21076;-85
2021/06/03 07:07:56;;;;;;;0.70;0.70;;;;;;;18.03;52.45;100734.80;1707800;84;21028;-87
2021/06/03 07:10:23;;;;;;;0.55;0.47;;;;;;;18.14;51.50;100735.86;1715457;82;21469;-85
2021/06/03 07:12:50;;;;;;;0.50;0.50;;;;;;;18.11;51.29;100728.22;1715262;83;21043;-84
2021/06/03 07:15:17;;;;;;;0.62;0.30;;;;;;;18.05;50.26;100728.37;1708242;84;21021;-84
2021/06/03 07:17:46;;;;;;;0.30;0.30;;;;;;;18.05;51.80;100727.54;1707787;84;40560;-87
2021/06/03 07:20:15;;;;;;;0.75;0.55;;;;;;;18.15;52.48;100729.18;1715192;82;21001;-84
2021/06/03 07:22:44;;;;;;;1.07;0.93;;;;;;;18.31;50.84;100729.54;1720906;82;21076;-85
2021/06/03 07:25:11;;;;;;;0.82;0.45;;;;;;;18.42;49.58;100741.34;1731601;82;21421;-90
2021/06/03 07:27:38;;;;;;;0.72;0.53;;;;;;;18.46;52.96;100743.69;1731730;82;21035;-88
2021/06/03 07:30:07;;;;;;;0.82;0.75;;;;;;;18.57;50.79;100724.82;1731721;82;21019;-85
2021/06/03 07:32:34;;;;;;;0.30;0.30;;;;;;;18.61;52.51;100738.81;1731691;82;21044;-89
2021/06/03 07:35:00;;;;;;;0.70;0.50;;;;;;;18.61;51.31;100729.13;1731810;82;21027;-89
2021/06/03 07:37:28;;;;;;;0.20;0.20;;;;;;;18.58;50.20;100735.31;1731705;82;21072;-86
2021/06/03 07:39:56;;;;;;;0.30;0.30;;;;;;;18.51;49.01;100746.06;1731816;82;21451;-87
2021/06/03 07:42:22;;;;;;;0.50;0.40;;;;;;;18.41;47.81;100745.23;1731718;82;21309;-87
2021/06/03 07:44:49;;;;;;;0.47;0.20;;;;;;;18.30;45.80;100750.86;1731625;82;21012;-87
2021/06/03 07:47:17;;;;;;;0.42;0.15;;;;;;;18.19;47.81;100760.02;1731789;82;21028;-88
2021/06/03 07:49:43;;;;;;;0.13;0.13;;;;;;;18.20;48.34;100753.37;1706654;82;21002;-88
2021/06/03 07:52:10;;;;;;;0.45;0.37;;;;;;;18.25;47.40;100749.64;1706683;82;21012;-85
2021/06/03 07:54:36;;;;;;;1.77;0.98;;;;;;;18.26;47.93;100749.88;1731849;82;21474;-86
2021/06/03 07:57:04;;;;;;;0.28;0.28;;;;;;;18.24;46.93;100752.14;1731708;82;21028;-85
2021/06/03 07:59:31;;;;;;;1.70;0.90;;;;;;;18.26;47.03;100751.25;1706532;82;21518;-85
2021/06/03 08:01:58;;;;;;;0.30;0.30;;;;;;;18.30;49.42;100757.78;1731954;82;20984;-86
2021/06/03 08:04:24;;;;;;;0.30;0.30;;;;;;;18.39;47.81;100761.34;1731986;82;21048;-86
2021/06/03 08:06:52;;;;;;;0.30;0.20;;;;;;;18.45;48.78;100758.67;1732082;82;21000;-85
2021/06/03 08:09:18;;;;;;;0.50;0.45;;;;;;;18.56;48.10;100763.88;1731706;82;21466;-88
2021/06/03 08:11:46;;;;;;;0.90;0.62;;;;;;;18.72;46.88;100766.41;1731916;82;21438;-85
2021/06/03 08:14:13;;;;;;;0.20;0.20;;;;;;;18.89;47.77;100770.58;1734063;82;21035;-86
2021/06/03 08:16:40;;;;;;;0.60;0.40;;;;;;;19.01;47.16;100764.92;1732951;82;21068;-85
2021/06/03 08:19:08;;;;;;;1.30;0.40;;;;;;;19.00;47.86;100776.58;1732914;81;21024;-86
2021/06/03 08:21:35;;;;;;;0.37;0.37;;;;;;;19.01;47.45;100771.84;1731869;82;21035;-89
2021/06/03 08:24:03;;;;;;;0.20;0.20;;;;;;;19.03;47.18;100783.41;1731488;81;21417;-88
2021/06/03 08:26:31;;;;;;;0.35;0.35;;;;;;;19.04;47.00;100775.33;1731749;82;21039;-88
2021/06/03 08:28:59;;;;;;;0.78;0.40;;;;;;;19.01;49.44;100782.92;1731657;82;21067;-88
2021/06/03 08:31:26;;;;;;;1.42;0.60;;;;;;;19.02;49.12;100773.49;1731964;82;21007;-88
2021/06/03 08:33:52;;;;;;;0.20;0.20;;;;;;;19.13;48.54;100770.60;1731617;82;20999;-88
2021/06/03 08:36:21;;;;;;;0.20;0.20;;;;;;;19.36;51.46;100774.53;1731589;82;20980;-90
2021/06/03 08:38:47;;;;;;;0.57;0.50;;;;;;;19.62;49.05;100776.64;1731693;82;21088;-88
2021/06/03 08:41:14;;;;;;;1.32;0.70;;;;;;;19.80;47.49;100776.59;1731935;82;21004;-86
2021/06/03 08:43:41;;;;;;;0.25;0.23;;;;;;;19.84;46.49;100764.50;1731835;82;21550;-89
2021/06/03 08:46:08;;;;;;;0.25;0.23;;;;;;;19.72;46.82;100768.55;1731669;82;20997;-88
2021/06/03 08:48:34;;;;;;;0.30;0.30;;;;;;;19.50;45.97;100787.61;1732805;82;20973;-88
2021/06/03 08:51:04;;;;;;;1.35;0.72;;;;;;;19.25;47.15;100779.05;1731944;82;21487;-87
2021/06/03 08:53:30;;;;;;;0.20;0.20;;;;;;;19.09;44.66;100787.66;1731872;82;21080;-85
2021/06/03 08:56:18;;;;;;;0.40;0.40;;;;;;;19.00;46.69;100786.84;1731986;82;21005;-85
2021/06/03 08:58:49;;;;;;;0.30;0.30;;;;;;;18.94;46.15;100787.59;1731575;82;20977;-85
2021/06/03 09:01:16;;;;;;;0.95;0.47;;;;;;;18.79;46.89;100793.06;1731570;82;20991;-85
2021/06/03 09:03:44;;;;;;;0.60;0.55;;;;;;;18.72;47.43;100791.32;1731734;82;21502;-84
2021/06/03 09:10:20;;;;;;;0.65;0.30;;;;;;;18.68;47.24;100794.48;1731891;82;20994;-88
2021/06/03 09:13:19;;;;;;;0.33;0.33;;;;;;;18.71;47.97;100792.44;1732009;82;21012;-88
2021/06/03 09:15:59;;;;;;;0.42;0.42;;;;;;;18.85;46.98;100787.59;1731557;82;20996;-86
2021/06/03 09:18:35;;;;;;;0.70;0.23;;;;;;;19.02;47.16;100797.03;1731575;82;21000;-85
2021/06/03 09:21:13;;;;;;;0.15;0.15;;;;;;;19.11;47.93;100803.34;1708180;82;21029;-86
2021/06/03 09:23:42;;;;;;;0.47;0.42;;;;;;;19.11;47.12;100800.58;1731751;82;21048;-85
2021/06/03 09:26:14;;;;;;;8.38;0.72;;;;;;;19.09;44.22;100791.23;1731789;82;21036;-86
2021/06/03 09:28:43;;;;;;;0.60;0.40;;;;;;;19.17;46.73;100792.93;1731498;82;21491;-88
2021/06/03 09:31:20;;;;;;;0.30;0.30;;;;;;;19.24;45.42;100795.44;1731390;82;20989;-88
2021/06/03 09:33:58;;;;;;;1.35;0.72;;;;;;;19.33;46.75;100792.05;1732226;82;21013;-88
2021/06/03 09:36:35;;;;;;;0.25;0.20;;;;;;;19.45;46.04;100799.69;1731641;82;21000;-88
2021/06/03 09:39:19;;;;;;;0.30;0.30;;;;;;;19.59;44.53;100789.78;1731568;82;21000;-86
2021/06/03 09:42:06;;;;;;;0.40;0.40;;;;;;;19.73;44.80;100790.97;1731671;82;21001;-90
2021/06/03 09:44:41;;;;;;;0.90;0.40;;;;;;;19.73;44.80;100790.97;1731058;82;20992;-89
2021/06/03 09:47:14;;;;;;;0.90;0.78;;;;;;;19.78;43.35;100785.81;1720316;82;21019;-85
2021/06/03 09:49:42;;;;;;;;;;;;;;;19.78;43.35;100785.81;1732294;82;20919;-85
2021/06/03 09:52:13;;;;;;;0.80;0.50;;;;;;;19.76;43.21;100786.97;1706111;82;20152;-86
2021/06/03 09:54:41;;;;;;;2.17;0.90;;;;;;;19.73;42.33;100778.48;1730548;82;21003;-85
2021/06/03 09:57:10;;;;;;;0.65;0.20;;;;;;;19.73;42.33;100778.48;1731059;82;21000;-86
2021/06/03 09:59:47;;;;;;;0.88;0.65;;;;;;;19.82;43.00;100784.00;1729722;82;21495;-85
2021/06/03 10:02:20;;;;;;;0.37;0.37;;;;;;;19.82;43.00;100784.00;1728041;82;21050;-89
2021/06/03 10:04:48;;;;;;;;;;;;;;;19.87;44.27;100786.59;1732537;82;21355;-89
2021/06/03 10:07:28;;;;;;;0.60;0.50;;;;;;;19.85;43.56;100786.11;1729593;82;20398;-86
2021/06/03 10:10:09;;;;;;;0.40;0.37;;;;;;;19.85;43.56;100786.11;1729904;82;21019;-86
2021/06/03 10:12:46;;;;;;;0.62;0.57;;;;;;;20.01;44.46;100790.52;1729910;82;21011;-87
2021/06/03 10:15:28;;;;;;;0.65;0.30;;;;;;;20.16;43.48;100785.78;1729913;82;21058;-88
2021/06/03 10:18:05;;;;;;;0.60;0.60;;;;;;;20.19;44.24;100803.13;1730600;82;21020;-89
2021/06/03 10:20:52;;;;;;;0.20;0.20;;;;;;;20.11;43.22;100784.59;1729777;82;21366;-86
2021/06/03 10:23:29;;;;;;;0.40;0.30;;;;;;;19.98;43.20;100790.63;1729936;82;20995;-86
2021/06/03 10:26:04;;;;;;;1.05;0.53;;;;;;;19.96;43.23;100787.36;1729841;82;21026;-86
2021/06/03 10:28:30;;;;;;;0.57;0.42;;;;;;;20.13;43.25;100789.23;1729961;82;20999;-86
2021/06/03 10:31:01;;;;;;;0.13;0.13;;;;;;;20.32;42.56;100792.34;1729779;82;21038;-85
2021/06/03 10:33:30;;;;;;;1.47;0.57;;;;;;;20.41;42.27;100786.75;1730254;82;21042;-84
2021/06/03 10:36:02;;;;;;;1.00;0.50;;;;;;;20.38;43.83;100784.66;1729981;82;21504;-84
2021/06/03 10:38:28;;;;;;;1.47;0.30;;;;;;;20.35;42.98;100778.36;1706518;82;21118;-84
2021/06/03 10:41:04;;;;;;;0.53;0.35;;;;;;;20.37;45.27;100785.78;1730000;82;21059;-84
2021/06/03 10:43:36;;;;;;;0.40;0.40;;;;;;;20.36;45.07;100793.89;1729632;82;21015;-87
2021/06/03 10:46:05;;;;;;;0.40;0.40;;;;;;;20.37;44.88;100787.98;1730204;82;20999;-87
2021/06/03 10:48:33;;;;;;;0.50;0.42;;;;;;;20.49;44.65;100791.41;1729643;82;21126;-88
2021/06/03 10:51:06;;;;;;;1.35;0.53;;;;;;;20.50;44.30;100787.50;1731974;82;21098;-85
2021/06/03 10:53:32;;;;;;;0.40;0.40;;;;;;;20.46;43.12;100792.09;1709961;82;21102;-85
2021/06/03 10:56:21;;;;;;;0.55;0.55;;;;;;;20.40;44.18;100799.02;1729807;82;21055;-83
2021/06/03 10:58:50;;;;;;;0.80;0.50;;;;;;;20.37;43.05;100812.15;1729817;82;21057;-84
2021/06/03 11:01:18;;;;;;;0.35;0.30;;;;;;;20.27;43.32;100808.38;1729884;82;21082;-84
2021/06/03 11:03:56;;;;;;;0.25;0.25;;;;;;;20.13;44.53;100810.03;1729837;82;21588;-85
2021/06/03 11:06:23;;;;;;;0.40;0.40;;;;;;;20.08;43.21;100804.10;1729739;82;21043;-84
2021/06/03 11:09:05;;;;;;;0.20;0.20;;;;;;;20.16;45.25;100807.39;1729782;82;21055;-84
2021/06/03 11:11:45;;;;;;;0.47;0.30;;;;;;;20.40;45.85;100790.69;1730223;82;21448;-85
2021/06/03 11:14:18;;;;;;;0.62;0.62;;;;;;;20.72;45.47;100789.70;1730610;82;21611;-84
2021/06/03 11:16:52;;;;;;;0.75;0.33;;;;;;;20.87;43.64;100792.43;1710537;83;21490;-84
2021/06/03 11:19:26;;;;;;;0.33;0.33;;;;;;;20.80;43.45;100791.62;1700870;84;21060;-88
2021/06/03 11:22:01;;;;;;;1.25;0.65;;;;;;;20.63;43.35;100793.95;1699070;84;21082;-87
2021/06/03 11:24:39;;;;;;;0.30;0.30;;;;;;;20.55;43.07;100794.84;1718395;82;21015;-87
2021/06/03 11:27:16;;;;;;;0.45;0.40;;;;;;;20.41;43.15;100786.75;1724195;83;21087;-86
2021/06/03 11:29:54;;;;;;;0.15;0.15;;;;;;;20.24;43.64;100797.97;1724333;83;21035;-85
2021/06/03 11:32:28;;;;;;;0.85;0.45;;;;;;;20.10;43.14;100796.27;1731362;82;21015;-85
2021/06/03 11:34:59;;;;;;;;;;;;;;;19.96;45.02;100799.84;1733521;82;21072;-84
2021/06/03 11:37:30;;;;;;;1.35;0.40;;;;;;;19.80;46.32;100802.93;1699733;84;20151;-84
2021/06/03 11:40:09;;;;;;;0.45;0.45;;;;;;;19.67;45.22;100811.13;1710321;83;21410;-84
2021/06/03 11:42:52;;;;;;;0.37;0.37;;;;;;;19.59;43.79;100809.19;1700846;84;21467;-85
2021/06/03 11:45:32;;;;;;;0.50;0.40;;;;;;;19.44;43.71;100804.19;1696038;84;21059;-87